createdAt,value
2022-09-07T00:01:17.321Z,19.14
2022-09-07T00:03:57.646Z,19.11
2022-09-07T00:06:34.608Z,19.19
2022-09-07T00:09:10.508Z,19.21
2022-09-07T00:11:44.625Z,19.24
2022-09-07T00:14:18.998Z,19.29
2022-09-07T00:16:53.176Z,19.28
2022-09-07T00:19:27.668Z,19.22
2022-09-07T00:22:01.857Z,19.17
2022-09-07T00:24:37.727Z,19.25
2022-09-07T00:27:11.872Z,19.19
2022-09-07T00:29:46.312Z,19.17
2022-09-07T00:32:20.402Z,19.18
2022-09-07T00:34:54.772Z,19.17
2022-09-07T00:37:28.772Z,19.13
2022-09-07T00:40:05.707Z,19.11
2022-09-07T00:42:40.204Z,19.12
2022-09-07T00:45:17.243Z,19.20
2022-09-07T00:47:57.448Z,19.28
2022-09-07T00:50:36.188Z,19.27
2022-09-07T00:53:14.653Z,19.17
2022-09-07T00:55:53.650Z,19.17
2022-09-07T00:58:28.933Z,19.16
2022-09-07T01:01:03.439Z,19.23
2022-09-07T01:03:42.200Z,19.28
2022-09-07T01:06:19.249Z,19.25
2022-09-07T01:08:54.475Z,19.25
2022-09-07T01:11:32.831Z,19.20
2022-09-07T01:14:10.096Z,19.21
2022-09-07T01:16:55.631Z,19.21
2022-09-07T01:19:58.753Z,19.19
2022-09-07T01:23:04.182Z,19.14
2022-09-07T01:25:47.086Z,19.12
2022-09-07T01:28:24.671Z,19.15
2022-09-07T01:31:02.814Z,19.14
2022-09-07T01:33:51.564Z,19.15
2022-09-07T01:36:34.722Z,19.20
2022-09-07T01:39:09.305Z,19.18
2022-09-07T01:41:54.232Z,19.17
2022-09-07T01:44:35.957Z,19.14
2022-09-07T01:47:15.163Z,19.20
2022-09-07T01:49:54.606Z,19.17
2022-09-07T01:52:38.221Z,19.04
2022-09-07T01:55:18.004Z,19.03
2022-09-07T01:57:57.555Z,19.00
2022-09-07T02:00:36.796Z,19.02
2022-09-07T02:03:16.384Z,19.06
2022-09-07T02:05:58.517Z,18.99
2022-09-07T02:08:37.263Z,18.99
2022-09-07T02:11:16.134Z,19.01
2022-09-07T02:13:54.265Z,18.97
2022-09-07T02:16:33.523Z,18.95
2022-09-07T02:19:14.181Z,18.90
2022-09-07T02:21:54.044Z,18.92
2022-09-07T02:24:33.942Z,19.05
2022-09-07T02:27:12.234Z,19.05
2022-09-07T02:29:46.931Z,19.04
2022-09-07T02:32:22.440Z,18.87
2022-09-07T02:34:56.884Z,18.90
2022-09-07T02:37:32.080Z,18.94
2022-09-07T02:40:08.596Z,18.85
2022-09-07T02:42:44.360Z,18.87
2022-09-07T02:45:19.447Z,18.89
2022-09-07T02:48:16.993Z,18.80
2022-09-07T02:51:12.593Z,18.79
2022-09-07T02:54:02.535Z,18.85
2022-09-07T02:56:45.699Z,18.79
2022-09-07T02:59:36.464Z,18.72
2022-09-07T03:02:20.454Z,18.88
2022-09-07T03:05:04.822Z,18.79
2022-09-07T03:07:45.600Z,18.80
2022-09-07T03:10:20.352Z,18.84
2022-09-07T03:12:54.748Z,18.78
2022-09-07T03:15:29.518Z,18.78
2022-09-07T03:18:03.854Z,18.74
2022-09-07T03:20:39.328Z,18.74
2022-09-07T03:23:13.880Z,18.66
2022-09-07T03:25:49.868Z,18.63
2022-09-07T03:28:24.334Z,18.64
2022-09-07T03:30:58.538Z,18.66
2022-09-07T03:33:32.997Z,18.71
2022-09-07T03:36:08.739Z,18.77
2022-09-07T03:38:43.135Z,18.72
2022-09-07T03:41:17.276Z,18.71
2022-09-07T03:43:51.595Z,18.82
2022-09-07T03:46:25.769Z,19.55
2022-09-07T03:49:00.300Z,19.19
2022-09-07T03:51:35.756Z,19.05
2022-09-07T03:54:10.114Z,18.96
2022-09-07T03:56:44.229Z,18.92
2022-09-07T03:59:18.611Z,18.80
2022-09-07T04:01:53.082Z,18.68
2022-09-07T04:04:27.484Z,18.70
2022-09-07T04:07:02.949Z,18.69
2022-09-07T04:09:37.433Z,18.66
2022-09-07T04:12:11.544Z,18.61
2022-09-07T04:14:46.450Z,18.56
2022-09-07T04:17:20.649Z,18.61
2022-09-07T04:19:55.879Z,18.71
2022-09-07T04:22:31.424Z,18.67
2022-09-07T04:25:06.518Z,18.67
2022-09-07T04:27:40.767Z,18.69
2022-09-07T04:30:15.484Z,18.65
2022-09-07T04:32:49.708Z,18.67
2022-09-07T04:35:24.065Z,18.60
2022-09-07T04:38:02.955Z,18.75
2022-09-07T04:40:37.435Z,19.43
2022-09-07T04:43:13.252Z,19.72
2022-09-07T04:45:47.650Z,19.61
2022-09-07T04:48:21.936Z,19.54
2022-09-07T04:50:56.281Z,19.33
2022-09-07T04:53:31.777Z,19.24
2022-09-07T04:56:07.058Z,18.94
2022-09-07T04:58:41.245Z,18.75
2022-09-07T05:01:17.640Z,18.88
2022-09-07T05:03:52.352Z,18.90
2022-09-07T05:06:26.927Z,19.02
2022-09-07T05:09:02.846Z,19.14
2022-09-07T05:11:37.322Z,18.90
2022-09-07T05:14:11.929Z,18.83
2022-09-07T05:16:46.368Z,18.88
2022-09-07T05:19:20.600Z,18.90
2022-09-07T05:21:55.063Z,19.06
2022-09-07T05:24:30.604Z,19.06
2022-09-07T05:27:05.804Z,19.18
2022-09-07T05:32:34.297Z,19.10
2022-09-07T05:35:08.781Z,19.26
2022-09-07T05:37:43.252Z,19.28
2022-09-07T05:40:18.951Z,19.24
2022-09-07T05:42:53.535Z,19.36
2022-09-07T05:45:27.729Z,19.30
2022-09-07T05:48:02.350Z,19.46
2022-09-07T05:50:36.634Z,19.42
2022-09-07T05:53:10.967Z,19.43
2022-09-07T05:55:49.954Z,19.69
2022-09-07T05:58:24.355Z,19.53
2022-09-07T06:00:59.731Z,19.64
2022-09-07T06:03:34.462Z,19.62
2022-09-07T06:06:10.622Z,19.70
2022-09-07T06:08:47.484Z,19.88
2022-09-07T06:11:25.081Z,19.83
2022-09-07T06:13:59.536Z,19.88
2022-09-07T06:16:35.051Z,19.98
2022-09-07T06:19:10.633Z,20.02
2022-09-07T06:21:44.706Z,20.13
2022-09-07T06:24:19.062Z,20.21
2022-09-07T06:26:54.664Z,20.06
2022-09-07T06:29:28.995Z,20.15
2022-09-07T06:34:57.776Z,20.27
2022-09-07T07:35:31.821Z,22.46
2022-09-07T07:40:43.058Z,22.75
2022-09-07T07:43:17.770Z,22.75
2022-09-07T07:45:54.884Z,22.37
2022-09-07T07:48:31.668Z,22.37
2022-09-07T07:51:11.849Z,22.43
2022-09-07T07:53:46.893Z,22.50
2022-09-07T07:56:22.782Z,22.56
2022-09-07T07:58:57.085Z,22.74
2022-09-07T08:01:31.187Z,22.74
2022-09-07T08:04:05.569Z,22.82
2022-09-07T08:06:43.875Z,23.03
2022-09-07T08:09:18.498Z,23.11
2022-09-07T08:11:55.075Z,23.08
2022-09-07T08:14:29.502Z,23.28
2022-09-07T08:17:04.090Z,23.56
2022-09-07T08:19:38.830Z,23.69
2022-09-07T08:22:13.506Z,23.78
2022-09-07T08:24:47.908Z,23.70
2022-09-07T08:27:23.429Z,23.59
2022-09-07T08:29:57.774Z,23.86
2022-09-07T08:32:31.998Z,24.07
2022-09-07T08:35:07.853Z,24.29
2022-09-07T08:37:41.972Z,24.47
2022-09-07T08:40:18.589Z,24.64
2022-09-07T08:43:04.965Z,24.67
2022-09-07T08:45:44.919Z,24.90
2022-09-07T08:48:21.198Z,25.02
2022-09-07T08:51:00.783Z,25.06
2022-09-07T08:53:41.282Z,25.13
2022-09-07T08:56:23.180Z,25.13
2022-09-07T08:59:00.197Z,25.24
2022-09-07T09:01:41.199Z,25.31
2022-09-07T09:04:23.705Z,25.51
2022-09-07T09:07:07.714Z,25.54
2022-09-07T09:10:03.848Z,25.59
2022-09-07T09:12:55.253Z,25.58
2022-09-07T09:15:42.319Z,25.88
2022-09-07T09:18:29.185Z,26.10
2022-09-07T09:21:03.826Z,25.97
2022-09-07T09:23:41.868Z,26.11
2022-09-07T09:26:19.629Z,26.14
2022-09-07T09:28:54.461Z,26.41
2022-09-07T09:31:36.161Z,26.58
2022-09-07T09:34:14.027Z,26.39
2022-09-07T09:36:49.464Z,26.56
2022-09-07T09:39:30.188Z,26.66
2022-09-07T09:42:17.229Z,26.89
2022-09-07T09:44:52.181Z,26.93
2022-09-07T09:47:32.700Z,27.08
2022-09-07T09:52:29.254Z,26.94
2022-09-07T09:53:26.483Z,27.17
2022-09-07T09:56:03.135Z,27.23
2022-09-07T10:01:35.440Z,27.48
2022-09-07T10:04:27.656Z,27.50
2022-09-07T10:07:15.798Z,27.48
2022-09-07T10:09:52.671Z,27.48
2022-09-07T10:12:30.249Z,27.57
2022-09-07T10:15:08.202Z,27.79
2022-09-07T10:17:44.254Z,27.73
2022-09-07T10:20:34.912Z,27.65
2022-09-07T10:23:22.621Z,27.60
2022-09-07T10:25:57.117Z,27.47
2022-09-07T10:31:33.261Z,27.59
2022-09-07T10:34:29.989Z,27.77
2022-09-07T10:37:08.842Z,27.85
2022-09-07T10:39:44.176Z,27.80
2022-09-07T10:42:29.160Z,27.82
2022-09-07T10:45:13.612Z,27.81
2022-09-07T10:48:01.624Z,27.85
2022-09-07T10:50:45.257Z,28.05
2022-09-07T10:53:44.175Z,27.92
2022-09-07T10:56:25.751Z,27.86
2022-09-07T10:59:18.405Z,27.82
2022-09-07T11:02:02.630Z,28.16
2022-09-07T11:04:50.076Z,28.18
2022-09-07T11:07:48.022Z,28.08
2022-09-07T11:10:36.946Z,28.22
2022-09-07T11:13:15.667Z,28.26
2022-09-07T11:15:54.333Z,28.36
2022-09-07T11:18:34.110Z,28.25
2022-09-07T11:21:56.099Z,28.49
2022-09-07T11:24:20.722Z,28.84
2022-09-07T11:26:59.990Z,28.78
2022-09-07T11:29:39.814Z,28.86
2022-09-07T11:32:22.552Z,28.97
2022-09-07T11:35:02.345Z,29.04
2022-09-07T11:37:43.440Z,29.01
2022-09-07T11:40:26.486Z,29.04
2022-09-07T11:43:11.421Z,28.87
2022-09-07T11:45:49.962Z,28.96
2022-09-07T11:48:30.725Z,29.01
2022-09-07T11:51:15.227Z,28.77
2022-09-07T11:53:55.412Z,28.49
2022-09-07T11:56:37.146Z,28.93
2022-09-07T11:59:25.571Z,29.44
2022-09-07T12:02:15.710Z,29.37
2022-09-07T12:05:04.154Z,29.46
2022-09-07T12:08:02.296Z,29.24
2022-09-07T12:10:52.903Z,29.16
2022-09-07T12:13:43.078Z,29.54
2022-09-07T12:16:34.659Z,30.01
2022-09-07T12:19:19.633Z,30.31
2022-09-07T12:21:57.939Z,30.55
2022-09-07T12:24:44.061Z,30.31
2022-09-07T12:27:40.268Z,30.59
2022-09-07T12:30:53.876Z,30.62
2022-09-07T12:33:35.799Z,30.66
2022-09-07T12:36:49.636Z,30.64
2022-09-07T12:39:26.961Z,30.44
2022-09-07T12:42:39.461Z,30.60
2022-09-07T12:45:49.755Z,30.74
2022-09-07T12:48:44.405Z,31.42
2022-09-07T12:54:35.930Z,31.59
2022-09-07T12:57:29.366Z,31.84
2022-09-07T13:00:15.307Z,31.73
2022-09-07T13:09:30.567Z,31.93
2022-09-07T13:15:44.310Z,31.06
2022-09-07T13:18:48.765Z,31.10
2022-09-07T13:21:39.221Z,31.17
2022-09-07T13:24:46.435Z,30.72
2022-09-07T13:27:55.870Z,31.03
2022-09-07T13:30:45.383Z,31.33
2022-09-07T13:33:53.435Z,30.88
2022-09-07T13:36:41.697Z,30.89
2022-09-07T13:39:21.290Z,30.72
2022-09-07T13:41:58.999Z,30.68
2022-09-07T13:44:35.633Z,30.78
2022-09-07T13:47:21.997Z,30.79
2022-09-07T13:50:05.547Z,30.66
2022-09-07T13:52:55.730Z,30.56
2022-09-07T13:55:38.396Z,30.42
2022-09-07T13:58:17.923Z,30.32
2022-09-07T14:00:54.416Z,30.24
2022-09-07T14:03:31.501Z,30.42
2022-09-07T14:06:31.323Z,30.36
2022-09-07T14:09:14.526Z,30.39
2022-09-07T14:11:51.282Z,30.32
2022-09-07T14:14:27.121Z,30.27
2022-09-07T14:17:06.107Z,29.90
2022-09-07T14:19:45.236Z,29.87
2022-09-07T14:22:21.475Z,29.69
2022-09-07T14:24:58.638Z,29.58
2022-09-07T14:27:34.941Z,29.54
2022-09-07T14:30:17.343Z,29.52
2022-09-07T14:32:53.707Z,29.48
2022-09-07T14:35:33.575Z,29.48
2022-09-07T14:38:12.611Z,29.51
2022-09-07T14:40:48.451Z,29.46
2022-09-07T14:43:31.706Z,29.44
2022-09-07T14:46:18.638Z,29.45
2022-09-07T14:48:55.306Z,29.45
2022-09-07T14:51:36.169Z,29.54
2022-09-07T14:54:21.026Z,29.53
2022-09-07T14:57:21.085Z,29.49
2022-09-07T14:59:57.260Z,29.41
2022-09-07T15:02:37.730Z,29.31
2022-09-07T15:05:22.578Z,29.17
2022-09-07T15:07:59.549Z,29.05
2022-09-07T15:10:37.432Z,29.02
2022-09-07T15:13:33.026Z,28.96
2022-09-07T15:16:09.424Z,28.88
2022-09-07T15:18:57.681Z,28.78
2022-09-07T15:58:36.049Z,27.85
2022-09-07T16:04:06.998Z,27.70
2022-09-07T16:06:41.320Z,27.65
2022-09-07T16:09:16.401Z,27.59
2022-09-07T16:11:50.899Z,27.56
2022-09-07T16:14:26.956Z,27.52
2022-09-07T16:19:55.474Z,27.38
2022-09-07T16:25:24.433Z,27.28
2022-09-07T16:27:58.500Z,27.16
2022-09-07T16:30:34.219Z,27.13
2022-09-07T16:33:09.077Z,27.05
2022-09-07T16:35:43.534Z,26.98
2022-09-07T16:41:14.730Z,26.85
2022-09-07T16:43:48.898Z,26.74
2022-09-07T16:46:26.425Z,26.62
2022-09-07T16:49:00.582Z,26.62
2022-09-07T16:51:35.659Z,26.62
2022-09-07T16:54:12.892Z,26.55
2022-09-07T16:56:47.535Z,26.48
2022-09-07T16:59:26.312Z,26.40
2022-09-07T17:02:02.060Z,26.37
2022-09-07T17:04:36.043Z,26.33
2022-09-07T17:07:10.496Z,26.21
2022-09-07T17:09:44.601Z,26.13
2022-09-07T17:12:18.947Z,26.10
2022-09-07T17:14:53.196Z,26.08
2022-09-07T17:17:28.994Z,26.05
2022-09-07T17:20:03.881Z,26.09
2022-09-07T17:22:38.412Z,26.03
2022-09-07T17:25:14.145Z,25.98
2022-09-07T17:27:49.103Z,25.96
2022-09-07T17:30:24.712Z,25.89
2022-09-07T17:33:00.739Z,25.84
2022-09-07T17:35:37.381Z,25.87
2022-09-07T17:41:11.777Z,25.69
2022-09-07T17:43:46.263Z,25.67
2022-09-07T17:46:22.893Z,25.59
2022-09-07T17:49:01.103Z,25.41
2022-09-07T17:51:35.177Z,25.25
2022-09-07T17:54:13.755Z,25.37
2022-09-07T17:56:47.852Z,25.19
2022-09-07T18:02:16.621Z,25.11
2022-09-07T18:04:52.509Z,25.07
2022-09-07T18:07:27.673Z,25.18
2022-09-07T18:10:02.847Z,25.09
2022-09-07T18:12:37.285Z,24.95
2022-09-07T18:15:12.417Z,24.91
2022-09-07T18:17:46.546Z,24.85
2022-09-07T18:20:22.883Z,24.87
2022-09-07T18:22:57.812Z,24.84
2022-09-07T18:25:32.414Z,24.74
2022-09-07T18:31:05.518Z,24.72
2022-09-07T18:33:40.116Z,24.61
2022-09-07T18:36:16.455Z,24.62
2022-09-07T18:38:50.917Z,24.51
2022-09-07T18:41:25.280Z,24.50
2022-09-07T18:43:59.488Z,24.57
2022-09-07T18:46:34.700Z,24.46
2022-09-07T18:49:08.866Z,24.36
2022-09-07T18:54:38.934Z,24.31
2022-09-07T18:57:15.304Z,24.30
2022-09-07T18:59:49.956Z,24.24
2022-09-07T19:02:24.686Z,24.15
2022-09-07T19:07:54.676Z,24.04
2022-09-07T19:10:28.873Z,23.94
2022-09-07T19:13:03.520Z,23.94
2022-09-07T19:15:38.109Z,24.03
2022-09-07T19:18:12.643Z,24.03
2022-09-07T19:20:46.769Z,23.96
2022-09-07T19:23:22.638Z,23.99
2022-09-07T19:25:59.342Z,23.91
2022-09-07T19:28:34.481Z,23.87
2022-09-07T19:31:08.906Z,23.97
2022-09-07T19:33:43.480Z,23.88
2022-09-07T19:36:17.681Z,23.83
2022-09-07T19:38:53.535Z,23.80
2022-09-07T19:41:30.295Z,23.77
2022-09-07T19:44:04.654Z,23.62
2022-09-07T19:46:38.760Z,23.68
2022-09-07T19:49:13.395Z,23.61
2022-09-07T19:51:49.508Z,23.48
2022-09-07T19:54:25.378Z,23.50
2022-09-07T19:56:59.396Z,23.44
2022-09-07T19:59:33.962Z,23.33
2022-09-07T20:02:08.090Z,23.26
2022-09-07T20:04:42.689Z,23.12
2022-09-07T20:07:16.828Z,23.03
2022-09-07T20:09:53.217Z,23.02
2022-09-07T20:12:27.351Z,23.00
2022-09-07T20:15:01.792Z,22.91
2022-09-07T20:17:37.589Z,22.88
2022-09-07T20:20:12.165Z,22.84
2022-09-07T20:22:46.523Z,22.84
2022-09-07T20:25:22.733Z,22.85
2022-09-07T20:27:57.209Z,22.69
2022-09-07T20:30:33.780Z,22.81
2022-09-07T20:33:08.016Z,22.87
2022-09-07T20:35:43.749Z,22.83
2022-09-07T20:38:18.979Z,22.73
2022-09-07T20:40:58.320Z,22.70
2022-09-07T20:43:32.439Z,22.70
2022-09-07T20:46:09.699Z,22.70
2022-09-07T20:48:44.224Z,22.64
2022-09-07T20:51:21.196Z,22.56
2022-09-07T20:53:55.960Z,22.53
2022-09-07T20:56:32.125Z,22.49
2022-09-07T20:59:06.901Z,22.63
2022-09-07T21:01:41.292Z,22.65
2022-09-07T21:04:17.613Z,22.52
2022-09-07T21:06:53.094Z,22.47
2022-09-07T21:09:27.148Z,22.41
2022-09-07T21:12:03.088Z,22.46
2022-09-07T21:14:37.138Z,22.33
2022-09-07T21:17:13.266Z,22.34
2022-09-07T21:19:47.521Z,22.42
2022-09-07T21:22:21.940Z,22.49
2022-09-07T21:24:56.034Z,22.48
2022-09-07T21:27:38.758Z,22.44
2022-09-07T21:30:14.142Z,22.34
2022-09-07T21:32:51.697Z,22.28
2022-09-07T21:35:25.776Z,22.09
2022-09-07T21:38:00.066Z,22.18
2022-09-07T21:40:34.060Z,22.05
2022-09-07T21:43:09.805Z,22.06
2022-09-07T21:45:43.848Z,22.03
2022-09-07T21:48:18.206Z,21.89
2022-09-07T21:50:57.728Z,21.81
2022-09-07T21:53:32.515Z,21.71
2022-09-07T21:56:08.840Z,21.71
2022-09-07T21:58:44.804Z,21.74
2022-09-07T22:01:20.277Z,21.77
2022-09-07T22:03:57.066Z,21.73
2022-09-07T22:06:32.747Z,21.64
2022-09-07T22:09:07.195Z,21.57
2022-09-07T22:11:45.374Z,21.69
2022-09-07T22:14:21.602Z,21.47
2022-09-07T22:16:55.715Z,21.33
2022-09-07T22:19:30.160Z,21.53
2022-09-07T22:22:04.320Z,21.49
2022-09-07T22:24:39.056Z,21.43
2022-09-07T22:27:13.138Z,21.35
2022-09-07T22:29:49.095Z,21.32
2022-09-07T22:32:23.126Z,21.29
2022-09-07T22:34:57.381Z,21.37
2022-09-07T22:37:32.345Z,21.24
2022-09-07T22:40:07.745Z,21.44
2022-09-07T22:42:42.027Z,21.12
2022-09-07T22:45:17.838Z,21.05
2022-09-07T22:47:51.938Z,20.95
2022-09-07T22:50:26.427Z,20.98
2022-09-07T22:53:00.488Z,20.92
2022-09-07T22:55:39.488Z,21.04
2022-09-07T22:58:13.500Z,21.07
2022-09-07T23:00:49.259Z,20.95
2022-09-07T23:03:23.444Z,20.84
2022-09-07T23:05:58.033Z,21.00
2022-09-07T23:08:32.733Z,21.04
2022-09-07T23:11:07.573Z,20.67
2022-09-07T23:13:41.855Z,20.83
2022-09-07T23:16:17.989Z,20.73
2022-09-07T23:18:54.865Z,20.56
2022-09-07T23:21:30.379Z,20.54
2022-09-07T23:24:04.689Z,20.53
2022-09-07T23:26:42.366Z,20.60
2022-09-07T23:29:17.501Z,20.80
2022-09-07T23:31:53.610Z,20.80
2022-09-07T23:34:27.716Z,20.84
2022-09-07T23:37:02.088Z,20.92
2022-09-07T23:39:36.113Z,20.69
2022-09-07T23:42:10.523Z,20.56
2022-09-07T23:44:45.311Z,20.48
2022-09-07T23:47:21.046Z,20.48
2022-09-07T23:49:55.201Z,20.33
2022-09-07T23:52:29.760Z,20.28
2022-09-07T23:55:03.895Z,20.30
2022-09-07T23:57:38.612Z,20.40
